createdAt,value
2023-07-18T00:00:26.705Z,3.08
2023-07-18T00:03:29.861Z,2.60
2023-07-18T00:06:31.507Z,2.80
2023-07-18T00:09:33.427Z,2.47
2023-07-18T00:12:36.108Z,2.58
2023-07-18T00:15:37.880Z,3.05
2023-07-18T00:18:39.553Z,3.13
2023-07-18T00:21:42.061Z,3.38
2023-07-18T00:24:43.746Z,3.05
2023-07-18T00:27:45.680Z,2.97
2023-07-18T00:30:48.472Z,3.00
2023-07-18T00:33:50.123Z,3.35
2023-07-18T00:36:56.360Z,2.80
2023-07-18T00:39:58.581Z,2.92
2023-07-18T00:43:00.221Z,2.85
2023-07-18T00:46:04.736Z,3.28
2023-07-18T00:49:06.762Z,2.95
2023-07-18T00:52:08.644Z,3.08
2023-07-18T00:55:11.490Z,2.80
2023-07-18T00:58:13.769Z,3.15
2023-07-18T01:01:15.702Z,2.78
2023-07-18T01:04:19.597Z,2.92
2023-07-18T01:07:21.583Z,3.15
2023-07-18T01:10:25.858Z,3.17
2023-07-18T01:13:27.749Z,2.97
2023-07-18T01:16:29.386Z,3.00
2023-07-18T01:19:31.890Z,2.95
2023-07-18T01:22:33.556Z,3.30
2023-07-18T01:25:36.398Z,3.10
2023-07-18T01:28:38.302Z,2.92
2023-07-18T01:31:40.016Z,3.13
2023-07-18T01:34:41.917Z,2.95
2023-07-18T01:37:47.625Z,2.85
2023-07-18T01:40:49.402Z,2.75
2023-07-18T01:43:51.054Z,2.75
2023-07-18T01:46:52.736Z,2.78
2023-07-18T01:49:54.368Z,3.40
2023-07-18T01:52:56.293Z,3.35
2023-07-18T01:55:59.611Z,3.30
2023-07-18T01:59:01.217Z,3.08
2023-07-18T02:02:07.553Z,3.45
2023-07-18T02:05:09.535Z,4.07
2023-07-18T02:08:11.185Z,3.13
2023-07-18T02:11:12.848Z,3.17
2023-07-18T02:14:14.509Z,3.53
2023-07-18T02:17:16.212Z,3.13
2023-07-18T02:20:18.123Z,3.50
2023-07-18T02:23:19.822Z,4.18
2023-07-18T02:26:21.451Z,3.00
2023-07-18T02:29:23.179Z,3.22
2023-07-18T02:32:24.797Z,3.72
2023-07-18T02:35:26.457Z,3.22
2023-07-18T02:38:28.074Z,2.85
2023-07-18T02:41:29.711Z,4.38
2023-07-18T02:44:31.308Z,2.88
2023-07-18T02:47:32.966Z,3.15
2023-07-18T02:50:35.801Z,3.45
2023-07-18T02:53:37.637Z,2.92
2023-07-18T02:56:39.277Z,3.33
2023-07-18T02:59:40.935Z,3.08
2023-07-18T03:02:43.291Z,3.67
2023-07-18T03:05:44.998Z,3.13
2023-07-18T03:08:46.632Z,2.00
2023-07-18T03:11:48.629Z,2.80
2023-07-18T03:14:50.608Z,3.67
2023-07-18T03:17:52.300Z,4.05
2023-07-18T03:20:53.979Z,4.40
2023-07-18T03:23:56.028Z,3.38
2023-07-18T03:26:57.711Z,3.15
2023-07-18T03:29:59.337Z,3.42
2023-07-18T03:33:01.123Z,2.72
2023-07-18T03:36:03.530Z,2.67
2023-07-18T03:39:05.330Z,3.42
2023-07-18T03:42:07.500Z,3.38
2023-07-18T03:45:11.596Z,4.18
2023-07-18T03:48:13.491Z,4.03
2023-07-18T03:51:15.316Z,3.70
2023-07-18T03:54:18.146Z,3.13
2023-07-18T03:57:20.116Z,3.10
2023-07-18T04:00:22.016Z,3.42
2023-07-18T04:03:23.653Z,2.97
2023-07-18T04:06:25.377Z,3.20
2023-07-18T04:09:27.004Z,3.15
2023-07-18T04:12:28.587Z,3.25
2023-07-18T04:15:30.229Z,3.33
2023-07-18T04:18:31.950Z,4.80
2023-07-18T04:21:34.596Z,3.17
2023-07-18T04:24:36.423Z,3.03
2023-07-18T04:27:38.022Z,3.10
2023-07-18T04:30:39.851Z,3.20
2023-07-18T04:33:41.739Z,3.78
2023-07-18T04:36:44.042Z,4.18
2023-07-18T04:39:45.726Z,3.40
2023-07-18T04:42:47.359Z,3.20
2023-07-18T04:45:49.574Z,3.83
2023-07-18T04:48:51.202Z,3.85
2023-07-18T04:51:53.267Z,3.28
2023-07-18T04:54:55.322Z,3.03
2023-07-18T04:57:56.897Z,3.33
2023-07-18T05:01:00.634Z,3.38
2023-07-18T05:04:02.517Z,4.05
2023-07-18T05:07:05.053Z,2.75
2023-07-18T05:10:07.535Z,3.17
2023-07-18T05:13:09.691Z,2.63
2023-07-18T05:16:11.359Z,3.95
2023-07-18T05:19:13.136Z,3.38
2023-07-18T05:22:14.741Z,3.22
2023-07-18T05:25:18.285Z,2.75
2023-07-18T05:28:19.888Z,3.33
2023-07-18T05:31:22.330Z,3.53
2023-07-18T05:34:24.443Z,3.53
2023-07-18T05:37:27.120Z,2.63
2023-07-18T05:40:28.735Z,3.67
2023-07-18T05:43:30.324Z,2.70
2023-07-18T05:46:32.106Z,3.38
2023-07-18T05:49:33.848Z,4.22
2023-07-18T05:52:35.597Z,3.72
2023-07-18T05:55:37.915Z,3.40
2023-07-18T05:58:39.524Z,3.13
2023-07-18T06:01:41.209Z,3.20
2023-07-18T06:04:42.860Z,2.17
2023-07-18T06:07:44.499Z,3.78
2023-07-18T06:10:46.124Z,3.20
2023-07-18T06:13:47.804Z,3.75
2023-07-18T06:16:49.576Z,3.15
2023-07-18T06:19:51.367Z,3.40
2023-07-18T06:22:53.733Z,3.58
2023-07-18T06:25:55.428Z,2.85
2023-07-18T06:28:57.044Z,3.65
2023-07-18T06:31:59.203Z,3.13
2023-07-18T06:35:13.060Z,3.35
2023-07-18T06:38:23.178Z,3.95
2023-07-18T06:41:24.839Z,3.03
2023-07-18T06:44:26.836Z,3.05
2023-07-18T06:47:28.662Z,3.20
2023-07-18T06:50:30.868Z,3.35
2023-07-18T06:53:32.506Z,3.47
2023-07-18T06:56:34.112Z,3.35
2023-07-18T06:59:36.315Z,2.97
2023-07-18T07:02:38.014Z,3.22
2023-07-18T07:05:42.531Z,3.65
2023-07-18T07:08:44.210Z,3.63
2023-07-18T07:11:45.829Z,3.05
2023-07-18T07:14:47.535Z,2.50
2023-07-18T07:17:49.175Z,3.08
2023-07-18T07:20:52.250Z,2.72
2023-07-18T07:23:56.124Z,3.13
2023-07-18T07:26:59.547Z,3.47
2023-07-18T07:30:01.185Z,3.20
2023-07-18T07:33:07.246Z,3.75
2023-07-18T07:36:08.994Z,3.42
2023-07-18T07:39:10.661Z,2.90
2023-07-18T07:42:12.252Z,3.30
2023-07-18T07:45:15.565Z,2.88
2023-07-18T07:48:17.227Z,4.07
2023-07-18T07:51:19.431Z,3.40
2023-07-18T07:54:21.277Z,3.65
2023-07-18T07:57:23.673Z,3.53
2023-07-18T08:00:25.493Z,2.85
2023-07-18T08:03:27.154Z,3.33
2023-07-18T08:06:28.748Z,3.00
2023-07-18T08:09:30.532Z,3.90
2023-07-18T08:12:32.143Z,3.63
2023-07-18T08:15:33.770Z,3.17
2023-07-18T08:18:35.411Z,3.05
2023-07-18T08:21:37.005Z,3.78
2023-07-18T08:24:40.379Z,3.30
2023-07-18T08:27:42.016Z,3.05
2023-07-18T08:30:44.667Z,3.00
2023-07-18T08:33:46.840Z,4.82
2023-07-18T08:36:48.541Z,3.10
2023-07-18T08:39:50.194Z,2.95
2023-07-18T08:42:52.647Z,2.63
2023-07-18T08:45:55.303Z,3.30
2023-07-18T08:48:57.089Z,3.17
2023-07-18T08:51:58.938Z,2.58
2023-07-18T08:55:01.141Z,2.65
2023-07-18T08:58:03.471Z,2.90
2023-07-18T09:01:06.604Z,2.72
2023-07-18T09:04:08.276Z,3.13
2023-07-18T09:07:11.939Z,2.97
2023-07-18T09:10:21.975Z,2.67
2023-07-18T09:13:26.346Z,3.38
2023-07-18T09:16:27.982Z,3.47
2023-07-18T09:19:39.901Z,2.75
2023-07-18T09:22:42.587Z,3.45
2023-07-18T09:25:44.846Z,2.70
2023-07-18T09:28:47.254Z,3.40
2023-07-18T09:31:51.033Z,3.10
2023-07-18T09:34:53.965Z,3.05
2023-07-18T09:37:56.606Z,2.88
2023-07-18T09:40:58.384Z,4.07
2023-07-18T09:44:26.916Z,2.90
2023-07-18T09:47:24.013Z,3.60
2023-07-18T09:50:27.780Z,2.92
2023-07-18T09:53:31.329Z,2.63
2023-07-18T09:56:39.626Z,2.92
2023-07-18T09:59:41.544Z,2.92
2023-07-18T10:02:44.500Z,3.33
2023-07-18T10:05:46.818Z,3.17
2023-07-18T10:08:48.819Z,3.97
2023-07-18T10:11:59.614Z,3.25
2023-07-18T10:15:01.924Z,3.63
2023-07-18T10:18:19.681Z,3.70
2023-07-18T10:21:33.454Z,3.47
2023-07-18T10:24:35.225Z,4.57
2023-07-18T10:27:44.697Z,2.97
2023-07-18T10:30:47.593Z,2.70
2023-07-18T10:34:19.455Z,3.47
2023-07-18T10:37:27.340Z,3.33
2023-07-18T10:40:34.426Z,4.15
2023-07-18T10:43:48.044Z,3.03
2023-07-18T10:46:49.715Z,3.10
2023-07-18T10:49:51.373Z,3.03
2023-07-18T10:52:53.039Z,4.00
2023-07-18T10:55:57.480Z,3.35
2023-07-18T10:58:59.694Z,3.75
2023-07-18T11:02:01.937Z,3.58
2023-07-18T11:05:12.745Z,3.55
2023-07-18T11:08:26.531Z,3.67
2023-07-18T11:11:28.345Z,3.40
2023-07-18T11:14:42.318Z,3.33
2023-07-18T11:17:44.865Z,3.78
2023-07-18T11:20:46.635Z,3.38
2023-07-18T11:23:48.695Z,3.47
2023-07-18T11:27:19.139Z,3.55
2023-07-18T11:30:23.084Z,3.45
2023-07-18T11:33:37.163Z,4.18
2023-07-18T11:36:41.607Z,3.75
2023-07-18T11:39:47.871Z,4.20
2023-07-18T11:42:51.300Z,3.60
2023-07-18T11:45:57.117Z,4.05
2023-07-18T11:48:59.017Z,3.85
2023-07-18T11:52:03.398Z,3.55
2023-07-18T11:55:05.539Z,5.15
2023-07-18T11:58:09.296Z,2.42
2023-07-18T12:01:11.072Z,4.22
2023-07-18T12:04:16.213Z,3.40
2023-07-18T12:07:19.398Z,3.42
2023-07-18T12:10:24.764Z,4.25
2023-07-18T12:13:27.670Z,3.80
2023-07-18T12:16:29.793Z,3.47
2023-07-18T12:19:31.486Z,3.67
2023-07-18T12:22:33.520Z,4.45
2023-07-18T12:25:35.155Z,3.10
2023-07-18T12:28:36.800Z,4.25
2023-07-18T12:31:38.482Z,4.65
2023-07-18T12:34:41.242Z,3.75
2023-07-18T12:37:42.957Z,3.72
2023-07-18T12:40:44.723Z,4.45
2023-07-18T12:43:46.385Z,3.45
2023-07-18T12:46:48.547Z,2.95
2023-07-18T12:52:54.899Z,3.50
2023-07-18T12:55:56.912Z,4.10
2023-07-18T12:58:59.165Z,4.05
2023-07-18T13:02:01.430Z,4.07
2023-07-18T13:05:04.032Z,4.22
2023-07-18T13:08:06.473Z,4.07
2023-07-18T13:11:08.380Z,2.30
2023-07-18T13:14:10.212Z,4.15
2023-07-18T13:17:11.865Z,5.05
2023-07-18T13:20:13.565Z,2.85
2023-07-18T13:23:15.371Z,3.50
2023-07-18T13:26:20.378Z,3.65
2023-07-18T13:29:22.313Z,2.45
2023-07-18T13:32:24.007Z,4.10
2023-07-18T13:35:25.681Z,5.00
2023-07-18T13:38:27.349Z,3.65
2023-07-18T13:41:28.956Z,3.90
2023-07-18T13:44:30.604Z,3.67
2023-07-18T13:47:32.286Z,4.60
2023-07-18T13:50:34.006Z,3.13
2023-07-18T13:53:35.668Z,4.50
2023-07-18T13:56:37.375Z,2.63
2023-07-18T13:59:39.012Z,3.83
2023-07-18T14:02:40.833Z,4.18
2023-07-18T14:05:42.603Z,3.15
2023-07-18T14:08:44.941Z,3.72
2023-07-18T14:11:48.180Z,3.90
2023-07-18T14:14:49.855Z,3.83
2023-07-18T14:17:53.214Z,4.35
2023-07-18T14:20:54.995Z,4.28
2023-07-18T14:23:57.352Z,2.53
2023-07-18T14:26:58.988Z,4.07
2023-07-18T14:30:00.646Z,4.78
2023-07-18T14:33:05.272Z,5.65
2023-07-18T14:36:08.809Z,4.38
2023-07-18T14:39:10.472Z,4.72
2023-07-18T14:42:12.130Z,3.97
2023-07-18T14:45:13.853Z,4.78
2023-07-18T14:48:15.502Z,4.50
2023-07-18T14:51:17.246Z,4.85
2023-07-18T14:54:18.902Z,4.80
2023-07-18T14:57:20.979Z,4.75
2023-07-18T15:00:22.661Z,6.75
2023-07-18T15:03:24.430Z,5.93
2023-07-18T15:06:26.174Z,5.10
2023-07-18T15:09:27.809Z,4.75
2023-07-18T15:12:30.038Z,4.32
2023-07-18T15:15:32.157Z,4.47
2023-07-18T15:18:33.815Z,4.30
2023-07-18T15:21:35.782Z,4.80
2023-07-18T15:24:37.463Z,4.65
2023-07-18T15:27:40.871Z,5.03
2023-07-18T15:30:42.636Z,4.47
2023-07-18T15:33:44.445Z,4.88
2023-07-18T15:36:49.056Z,3.65
2023-07-18T15:39:50.722Z,4.03
2023-07-18T15:42:53.032Z,5.38
2023-07-18T15:45:55.942Z,4.53
2023-07-18T15:48:58.044Z,3.28
2023-07-18T15:51:59.668Z,5.07
2023-07-18T15:55:01.486Z,5.95
2023-07-18T15:58:03.122Z,4.90
2023-07-18T16:01:05.057Z,5.32
2023-07-18T16:04:07.777Z,4.57
2023-07-18T16:07:09.512Z,5.10
2023-07-18T16:10:11.392Z,4.05
2023-07-18T16:13:13.044Z,4.50
2023-07-18T16:16:15.595Z,5.18
2023-07-18T16:19:17.892Z,4.30
2023-07-18T16:22:19.702Z,5.00
2023-07-18T16:25:21.656Z,5.28
2023-07-18T16:28:23.377Z,5.47
2023-07-18T16:31:27.128Z,5.35
2023-07-18T16:34:28.925Z,5.75
2023-07-18T16:37:30.626Z,5.15
2023-07-18T16:40:32.283Z,5.25
2023-07-18T16:43:35.385Z,3.80
2023-07-18T16:46:37.173Z,3.95
2023-07-18T16:49:38.860Z,4.05
2023-07-18T16:52:41.356Z,3.00
2023-07-18T16:55:43.002Z,5.63
2023-07-18T16:58:45.030Z,6.82
2023-07-18T17:01:46.871Z,8.68
2023-07-18T17:04:48.570Z,9.82
2023-07-18T17:07:50.239Z,8.45
2023-07-18T17:10:51.935Z,6.80
2023-07-18T17:13:53.575Z,5.53
2023-07-18T17:16:55.315Z,6.80
2023-07-18T17:20:06.595Z,4.65
2023-07-18T17:23:10.288Z,4.75
2023-07-18T17:26:12.148Z,4.90
2023-07-18T17:29:13.769Z,3.53
2023-07-18T17:32:15.476Z,6.22
2023-07-18T17:35:17.520Z,4.20
2023-07-18T17:38:19.217Z,3.75
2023-07-18T17:41:21.290Z,3.63
2023-07-18T17:44:23.090Z,3.72
2023-07-18T17:47:24.797Z,3.80
2023-07-18T17:50:27.743Z,4.50
2023-07-18T17:53:29.409Z,3.53
2023-07-18T17:56:31.377Z,3.83
2023-07-18T17:59:33.829Z,4.20
2023-07-18T18:02:36.253Z,3.88
2023-07-18T18:05:48.108Z,3.58
2023-07-18T18:08:50.814Z,4.28
2023-07-18T18:11:54.035Z,3.97
2023-07-18T18:14:55.663Z,4.00
2023-07-18T18:17:57.379Z,4.03
2023-07-18T18:21:01.070Z,4.13
2023-07-18T18:24:02.680Z,4.40
2023-07-18T18:27:04.730Z,5.40
2023-07-18T18:30:07.022Z,4.63
2023-07-18T18:33:08.736Z,4.80
2023-07-18T18:36:10.589Z,4.95
2023-07-18T18:39:13.906Z,4.63
2023-07-18T18:42:15.568Z,4.05
2023-07-18T18:45:17.306Z,5.03
2023-07-18T18:48:19.651Z,4.82
2023-07-18T18:51:21.493Z,6.45
2023-07-18T18:54:23.689Z,4.57
2023-07-18T18:57:25.401Z,5.43
2023-07-18T19:00:27.272Z,4.32
2023-07-18T19:03:28.999Z,4.97
2023-07-18T19:06:30.706Z,5.15
2023-07-18T19:09:32.402Z,4.75
2023-07-18T19:12:34.062Z,4.88
2023-07-18T19:15:35.697Z,4.57
2023-07-18T19:18:37.618Z,4.07
2023-07-18T19:21:39.263Z,4.15
2023-07-18T19:24:42.050Z,3.30
2023-07-18T19:27:43.630Z,4.72
2023-07-18T19:30:45.268Z,3.72
2023-07-18T19:33:46.885Z,4.13
2023-07-18T19:36:48.686Z,3.97
2023-07-18T19:39:50.648Z,3.80
2023-07-18T19:42:52.460Z,4.13
2023-07-18T19:45:54.105Z,4.70
2023-07-18T19:48:55.742Z,4.82
2023-07-18T19:51:57.901Z,4.18
2023-07-18T19:54:59.601Z,3.75
2023-07-18T19:58:01.243Z,4.78
2023-07-18T20:01:02.937Z,4.32
2023-07-18T20:04:04.910Z,4.40
2023-07-18T20:07:06.587Z,4.45
2023-07-18T20:10:09.318Z,4.63
2023-07-18T20:13:10.939Z,3.60
2023-07-18T20:16:12.877Z,5.05
2023-07-18T20:19:15.117Z,4.00
2023-07-18T20:22:18.761Z,4.07
2023-07-18T20:25:20.344Z,3.30
2023-07-18T20:28:22.105Z,3.45
2023-07-18T20:31:24.191Z,5.57
2023-07-18T20:34:25.970Z,4.15
2023-07-18T20:37:27.697Z,3.63
2023-07-18T20:40:30.190Z,3.90
2023-07-18T20:43:32.048Z,3.85
2023-07-18T20:46:33.727Z,3.55
2023-07-18T20:49:35.581Z,4.00
2023-07-18T20:52:37.179Z,3.58
2023-07-18T20:55:38.841Z,4.25
2023-07-18T20:58:40.499Z,3.83
2023-07-18T21:01:42.158Z,3.75
2023-07-18T21:04:43.904Z,3.80
2023-07-18T21:07:45.532Z,4.03
2023-07-18T21:10:47.201Z,3.67
2023-07-18T21:13:48.868Z,4.10
2023-07-18T21:16:50.480Z,3.63
2023-07-18T21:19:52.156Z,3.03
2023-07-18T21:22:53.829Z,3.78
2023-07-18T21:25:55.515Z,4.53
2023-07-18T21:29:04.576Z,3.72
2023-07-18T21:32:07.595Z,4.15
2023-07-18T21:35:09.860Z,3.17
2023-07-18T21:38:11.682Z,3.60
2023-07-18T21:41:13.447Z,4.05
2023-07-18T21:44:15.587Z,4.68
2023-07-18T21:47:17.234Z,3.53
2023-07-18T21:50:18.896Z,3.92
2023-07-18T21:53:20.523Z,4.00
2023-07-18T21:56:22.159Z,3.85
2023-07-18T21:59:23.978Z,4.30
2023-07-18T22:02:33.189Z,4.82
2023-07-18T22:05:35.257Z,4.15
2023-07-18T22:08:36.845Z,3.85
2023-07-18T22:11:38.493Z,3.88
2023-07-18T22:14:40.182Z,4.10
2023-07-18T22:17:41.885Z,3.88
2023-07-18T22:20:43.747Z,4.15
2023-07-18T22:23:45.422Z,4.15
2023-07-18T22:26:47.035Z,3.45
2023-07-18T22:29:48.753Z,3.78
2023-07-18T22:32:50.432Z,3.65
2023-07-18T22:35:52.072Z,3.90
2023-07-18T22:38:53.667Z,4.20
2023-07-18T22:41:55.277Z,4.05
2023-07-18T22:44:56.933Z,3.05
2023-07-18T22:47:58.677Z,3.88
2023-07-18T22:51:00.366Z,4.18
2023-07-18T22:54:03.645Z,3.80
2023-07-18T22:57:06.743Z,4.35
2023-07-18T23:00:09.884Z,4.20
2023-07-18T23:03:12.705Z,4.45
2023-07-18T23:06:14.453Z,3.95
2023-07-18T23:09:16.320Z,4.30
2023-07-18T23:12:18.314Z,4.03
2023-07-18T23:15:20.261Z,3.88
2023-07-18T23:18:21.992Z,4.35
2023-07-18T23:21:24.214Z,4.68
2023-07-18T23:24:25.846Z,4.93
2023-07-18T23:27:27.436Z,4.35
2023-07-18T23:30:29.270Z,4.05
2023-07-18T23:33:30.941Z,4.25
2023-07-18T23:36:32.628Z,4.30
2023-07-18T23:39:34.610Z,3.95
2023-07-18T23:42:37.073Z,4.05
2023-07-18T23:45:39.387Z,4.63
2023-07-18T23:48:41.852Z,3.97
2023-07-18T23:51:43.507Z,4.22
2023-07-18T23:54:45.140Z,4.22
2023-07-18T23:57:46.829Z,4.32
